sensor_id;sensor_type;location;lat;lon;timestamp;pressure;altitude;pressure_sealevel;temperature;humidity
9721;BME280;4899;42.644;23.366;2023-04-09T00:01:05;94436.44;;;6.73;100.00
9721;BME280;4899;42.644;23.366;2023-04-09T00:03:31;94447.69;;;6.72;100.00
9721;BME280;4899;42.644;23.366;2023-04-09T00:05:56;94445.16;;;6.72;100.00
9721;BME280;4899;42.644;23.366;2023-04-09T00:08:22;94440.78;;;6.72;100.00
9721;BME280;4899;42.644;23.366;2023-04-09T00:10:48;94443.06;;;6.74;100.00
9721;BME280;4899;42.644;23.366;2023-04-09T00:13:14;94429.84;;;6.67;100.00
9721;BME280;4899;42.644;23.366;2023-04-09T00:15:40;94448.66;;;6.76;100.00
9721;BME280;4899;42.644;23.366;2023-04-09T00:18:05;94438.50;;;6.71;100.00
9721;BME280;4899;42.644;23.366;2023-04-09T00:20:31;94439.56;;;6.70;100.00
9721;BME280;4899;42.644;23.366;2023-04-09T00:22:56;94452.19;;;6.80;100.00
9721;BME280;4899;42.644;23.366;2023-04-09T00:25:22;94442.78;;;6.75;100.00
9721;BME280;4899;42.644;23.366;2023-04-09T00:27:48;94440.78;;;6.72;100.00
9721;BME280;4899;42.644;23.366;2023-04-09T00:30:13;94448.38;;;6.77;100.00
9721;BME280;4899;42.644;23.366;2023-04-09T00:32:40;94455.50;;;6.81;100.00
9721;BME280;4899;42.644;23.366;2023-04-09T00:35:05;94449.91;;;6.78;100.00
9721;BME280;4899;42.644;23.366;2023-04-09T00:37:31;94454.25;;;6.78;100.00
9721;BME280;4899;42.644;23.366;2023-04-09T00:39:56;94439.28;;;6.71;100.00
9721;BME280;4899;42.644;23.366;2023-04-09T00:42:22;94451.69;;;6.78;100.00
9721;BME280;4899;42.644;23.366;2023-04-09T00:44:47;94449.50;;;6.71;100.00
9721;BME280;4899;42.644;23.366;2023-04-09T00:47:13;94449.50;;;6.71;100.00
9721;BME280;4899;42.644;23.366;2023-04-09T00:49:38;94415.22;;;6.54;100.00
9721;BME280;4899;42.644;23.366;2023-04-09T00:52:04;94447.63;;;6.77;100.00
9721;BME280;4899;42.644;23.366;2023-04-09T00:54:29;94440.78;;;6.72;100.00
9721;BME280;4899;42.644;23.366;2023-04-09T00:56:56;94446.47;;;6.69;100.00
9721;BME280;4899;42.644;23.366;2023-04-09T00:59:23;94468.06;;;6.77;100.00
9721;BME280;4899;42.644;23.366;2023-04-09T01:01:49;94459.72;;;6.71;100.00
9721;BME280;4899;42.644;23.366;2023-04-09T01:04:14;94454.16;;;6.64;100.00
9721;BME280;4899;42.644;23.366;2023-04-09T01:09:21;94445.97;;;6.48;100.00
9721;BME280;4899;42.644;23.366;2023-04-09T01:12:11;94452.13;;;6.42;100.00
9721;BME280;4899;42.644;23.366;2023-04-09T01:17:15;94461.94;;;6.35;100.00
9721;BME280;4899;42.644;23.366;2023-04-09T01:28:04;94460.00;;;6.27;100.00
9721;BME280;4899;42.644;23.366;2023-04-09T01:30:30;94447.03;;;6.24;100.00
9721;BME280;4899;42.644;23.366;2023-04-09T01:32:57;94453.59;;;6.30;100.00
9721;BME280;4899;42.644;23.366;2023-04-09T01:35:24;94462.00;;;6.30;100.00
9721;BME280;4899;42.644;23.366;2023-04-09T01:37:51;94460.75;;;6.28;100.00
9721;BME280;4899;42.644;23.366;2023-04-09T01:40:17;94456.41;;;6.28;100.00
9721;BME280;4899;42.644;23.366;2023-04-09T01:42:44;94468.69;;;6.26;100.00
9721;BME280;4899;42.644;23.366;2023-04-09T01:45:11;94458.53;;;6.21;100.00
9721;BME280;4899;42.644;23.366;2023-04-09T01:47:40;94463.38;;;6.23;100.00
9721;BME280;4899;42.644;23.366;2023-04-09T01:50:06;94459.59;;;6.20;100.00
9721;BME280;4899;42.644;23.366;2023-04-09T01:52:32;94451.94;;;6.15;100.00
9721;BME280;4899;42.644;23.366;2023-04-09T01:54:58;94458.16;;;6.09;100.00
9721;BME280;4899;42.644;23.366;2023-04-09T01:57:23;94451.53;;;6.08;100.00
9721;BME280;4899;42.644;23.366;2023-04-09T01:59:49;94460.22;;;6.07;100.00
9721;BME280;4899;42.644;23.366;2023-04-09T02:02:18;94458.28;;;5.99;100.00
9721;BME280;4899;42.644;23.366;2023-04-09T02:04:50;94453.22;;;5.88;100.00
9721;BME280;4899;42.644;23.366;2023-04-09T02:07:43;94446.88;;;5.86;100.00
9721;BME280;4899;42.644;23.366;2023-04-09T02:10:12;94461.91;;;5.87;100.00
9721;BME280;4899;42.644;23.366;2023-04-09T02:12:42;94461.69;;;5.84;100.00
9721;BME280;4899;42.644;23.366;2023-04-09T02:15:09;94460.50;;;5.76;100.00
9721;BME280;4899;42.644;23.366;2023-04-09T02:17:35;94461.03;;;5.73;100.00
9721;BME280;4899;42.644;23.366;2023-04-09T02:20:01;94455.69;;;5.70;100.00
9721;BME280;4899;42.644;23.366;2023-04-09T02:22:26;94452.50;;;5.59;100.00
9721;BME280;4899;42.644;23.366;2023-04-09T02:24:52;94455.31;;;5.57;100.00
9721;BME280;4899;42.644;23.366;2023-04-09T02:27:17;94457.06;;;5.62;100.00
9721;BME280;4899;42.644;23.366;2023-04-09T02:29:43;94452.75;;;5.57;100.00
9721;BME280;4899;42.644;23.366;2023-04-09T02:32:08;94458.41;;;5.54;100.00
9721;BME280;4899;42.644;23.366;2023-04-09T02:34:34;94444.72;;;5.45;100.00
9721;BME280;4899;42.644;23.366;2023-04-09T02:36:59;94455.84;;;5.54;100.00
9721;BME280;4899;42.644;23.366;2023-04-09T02:39:25;94441.91;;;5.47;100.00
9721;BME280;4899;42.644;23.366;2023-04-09T02:41:51;94449.50;;;5.52;100.00
9721;BME280;4899;42.644;23.366;2023-04-09T02:44:17;94437.09;;;5.40;100.00
9721;BME280;4899;42.644;23.366;2023-04-09T02:46:43;94455.69;;;5.46;100.00
9721;BME280;4899;42.644;23.366;2023-04-09T02:49:09;94451.19;;;5.33;100.00
9721;BME280;4899;42.644;23.366;2023-04-09T02:51:34;94453.69;;;5.38;100.00
9721;BME280;4899;42.644;23.366;2023-04-09T02:54:01;94446.34;;;5.31;100.00
9721;BME280;4899;42.644;23.366;2023-04-09T02:56:26;94442.06;;;5.27;100.00
9721;BME280;4899;42.644;23.366;2023-04-09T02:58:52;94436.16;;;5.31;100.00
9721;BME280;4899;42.644;23.366;2023-04-09T03:01:20;94438.22;;;5.29;100.00
9721;BME280;4899;42.644;23.366;2023-04-09T03:03:46;94441.78;;;5.28;100.00
9721;BME280;4899;42.644;23.366;2023-04-09T03:06:11;94440.53;;;5.25;100.00
9721;BME280;4899;42.644;23.366;2023-04-09T03:08:37;94429.84;;;5.23;100.00
9721;BME280;4899;42.644;23.366;2023-04-09T03:11:03;94441.53;;;5.30;100.00
9721;BME280;4899;42.644;23.366;2023-04-09T03:13:28;94448.69;;;5.28;100.00
9721;BME280;4899;42.644;23.366;2023-04-09T03:15:54;94445.66;;;5.25;100.00
9721;BME280;4899;42.644;23.366;2023-04-09T03:18:19;94445.88;;;5.29;100.00
9721;BME280;4899;42.644;23.366;2023-04-09T03:20:45;94439.25;;;5.28;100.00
9721;BME280;4899;42.644;23.366;2023-04-09T03:23:10;94448.41;;;5.29;100.00
9721;BME280;4899;42.644;23.366;2023-04-09T03:25:36;94440.53;;;5.25;100.00
9721;BME280;4899;42.644;23.366;2023-04-09T03:28:02;94439.47;;;5.32;100.00
9721;BME280;4899;42.644;23.366;2023-04-09T03:30:28;94441.53;;;5.30;100.00
9721;BME280;4899;42.644;23.366;2023-04-09T03:32:53;94440.00;;;5.29;100.00
9721;BME280;4899;42.644;23.366;2023-04-09T03:35:19;94438.22;;;5.29;100.00
9721;BME280;4899;42.644;23.366;2023-04-09T03:37:45;94459.56;;;5.38;100.00
9721;BME280;4899;42.644;23.366;2023-04-09T03:40:11;94440.75;;;5.29;100.00
9721;BME280;4899;42.644;23.366;2023-04-09T03:42:36;94440.22;;;5.32;100.00
9721;BME280;4899;42.644;23.366;2023-04-09T03:45:03;94438.47;;;5.28;100.00
9721;BME280;4899;42.644;23.366;2023-04-09T03:47:29;94447.06;;;5.37;100.00
9721;BME280;4899;42.644;23.366;2023-04-09T03:49:54;94449.56;;;5.42;100.00
9721;BME280;4899;42.644;23.366;2023-04-09T03:52:19;94453.91;;;5.41;100.00
9721;BME280;4899;42.644;23.366;2023-04-09T03:54:45;94446.75;;;5.43;100.00
9721;BME280;4899;42.644;23.366;2023-04-09T03:57:10;94454.66;;;5.47;100.00
9721;BME280;4899;42.644;23.366;2023-04-09T03:59:36;94446.81;;;5.38;100.00
9721;BME280;4899;42.644;23.366;2023-04-09T04:02:01;94451.56;;;5.50;100.00
9721;BME280;4899;42.644;23.366;2023-04-09T04:04:26;94450.25;;;5.52;100.00
9721;BME280;4899;42.644;23.366;2023-04-09T04:06:52;94447.00;;;5.47;100.00
9721;BME280;4899;42.644;23.366;2023-04-09T04:09:17;94462.44;;;5.61;100.00
9721;BME280;4899;42.644;23.366;2023-04-09T04:11:43;94465.19;;;5.64;100.00
9721;BME280;4899;42.644;23.366;2023-04-09T04:14:08;94453.94;;;5.70;100.00
9721;BME280;4899;42.644;23.366;2023-04-09T04:16:34;94462.06;;;5.43;100.00
9721;BME280;4899;42.644;23.366;2023-04-09T04:19:00;94458.94;;;5.80;100.00
9721;BME280;4899;42.644;23.366;2023-04-09T04:21:25;94455.06;;;5.83;100.00
9721;BME280;4899;42.644;23.366;2023-04-09T04:23:51;94452.25;;;5.84;100.00
9721;BME280;4899;42.644;23.366;2023-04-09T04:26:17;94455.53;;;5.90;100.00
9721;BME280;4899;42.644;23.366;2023-04-09T04:28:42;94470.00;;;6.00;100.00
9721;BME280;4899;42.644;23.366;2023-04-09T04:31:11;94464.34;;;6.03;100.00
9721;BME280;4899;42.644;23.366;2023-04-09T04:33:37;94467.59;;;6.08;100.00
9721;BME280;4899;42.644;23.366;2023-04-09T04:36:08;94463.00;;;6.10;100.00
9721;BME280;4899;42.644;23.366;2023-04-09T04:38:34;94478.91;;;6.26;100.00
9721;BME280;4899;42.644;23.366;2023-04-09T04:41:01;94459.44;;;6.30;100.00
9721;BME280;4899;42.644;23.366;2023-04-09T04:43:26;94468.56;;;6.36;100.00
9721;BME280;4899;42.644;23.366;2023-04-09T04:45:52;94461.84;;;6.45;100.00
9721;BME280;4899;42.644;23.366;2023-04-09T04:48:18;94475.50;;;6.55;100.00
9721;BME280;4899;42.644;23.366;2023-04-09T04:50:43;94466.75;;;6.61;100.00
9721;BME280;4899;42.644;23.366;2023-04-09T04:53:09;94471.78;;;6.66;100.00
9721;BME280;4899;42.644;23.366;2023-04-09T04:55:35;94488.94;;;6.84;100.00
9721;BME280;4899;42.644;23.366;2023-04-09T04:58:01;94474.56;;;6.88;100.00
9721;BME280;4899;42.644;23.366;2023-04-09T05:00:26;94476.91;;;7.03;100.00
9721;BME280;4899;42.644;23.366;2023-04-09T05:02:52;94479.41;;;7.08;100.00
9721;BME280;4899;42.644;23.366;2023-04-09T05:05:17;94481.19;;;7.27;100.00
9721;BME280;4899;42.644;23.366;2023-04-09T05:07:42;94486.69;;;7.34;100.00
9721;BME280;4899;42.644;23.366;2023-04-09T05:10:08;94476.66;;;7.37;100.00
9721;BME280;4899;42.644;23.366;2023-04-09T05:12:34;94480.72;;;7.57;100.00
9721;BME280;4899;42.644;23.366;2023-04-09T05:14:59;94481.09;;;7.64;100.00
9721;BME280;4899;42.644;23.366;2023-04-09T05:17:25;94484.94;;;7.81;100.00
9721;BME280;4899;42.644;23.366;2023-04-09T05:19:51;94493.41;;;7.95;100.00
9721;BME280;4899;42.644;23.366;2023-04-09T05:22:17;94487.63;;;8.03;100.00
9721;BME280;4899;42.644;23.366;2023-04-09T05:24:43;94481.72;;;8.16;100.00
9721;BME280;4899;42.644;23.366;2023-04-09T05:27:09;94485.75;;;8.22;100.00
9721;BME280;4899;42.644;23.366;2023-04-09T05:29:34;94477.47;;;8.25;100.00
9721;BME280;4899;42.644;23.366;2023-04-09T05:32:00;94488.03;;;8.38;100.00
9721;BME280;4899;42.644;23.366;2023-04-09T05:34:25;94489.38;;;8.49;100.00
9721;BME280;4899;42.644;23.366;2023-04-09T05:36:51;94481.56;;;8.54;100.00
9721;BME280;4899;42.644;23.366;2023-04-09T05:39:17;94490.09;;;8.63;100.00
9721;BME280;4899;42.644;23.366;2023-04-09T05:41:42;94488.09;;;8.74;100.00
9721;BME280;4899;42.644;23.366;2023-04-09T05:44:10;94485.25;;;8.75;100.00
9721;BME280;4899;42.644;23.366;2023-04-09T05:46:36;94494.66;;;8.80;100.00
9721;BME280;4899;42.644;23.366;2023-04-09T05:49:01;94494.25;;;8.86;100.00
9721;BME280;4899;42.644;23.366;2023-04-09T05:51:27;94496.44;;;8.93;100.00
9721;BME280;4899;42.644;23.366;2023-04-09T05:53:52;94492.88;;;9.03;100.00
9721;BME280;4899;42.644;23.366;2023-04-09T05:56:18;94501.56;;;9.15;100.00
9721;BME280;4899;42.644;23.366;2023-04-09T05:58:47;94490.47;;;9.20;100.00
9721;BME280;4899;42.644;23.366;2023-04-09T06:01:12;94492.16;;;9.24;100.00
9721;BME280;4899;42.644;23.366;2023-04-09T06:03:38;94504.34;;;9.41;100.00
9721;BME280;4899;42.644;23.366;2023-04-09T06:06:04;94507.63;;;9.55;100.00
9721;BME280;4899;42.644;23.366;2023-04-09T06:08:29;94496.47;;;9.60;100.00
9721;BME280;4899;42.644;23.366;2023-04-09T06:10:55;94484.44;;;9.69;100.00
9721;BME280;4899;42.644;23.366;2023-04-09T06:13:20;94493.63;;;9.93;100.00
9721;BME280;4899;42.644;23.366;2023-04-09T06:15:46;94504.84;;;9.97;100.00
9721;BME280;4899;42.644;23.366;2023-04-09T06:18:12;94499.84;;;10.00;100.00
9721;BME280;4899;42.644;23.366;2023-04-09T06:20:38;94493.84;;;10.13;100.00
9721;BME280;4899;42.644;23.366;2023-04-09T06:23:04;94501.38;;;10.32;100.00
9721;BME280;4899;42.644;23.366;2023-04-09T06:25:29;94495.63;;;10.35;100.00
9721;BME280;4899;42.644;23.366;2023-04-09T06:27:55;94493.81;;;10.36;100.00
9721;BME280;4899;42.644;23.366;2023-04-09T06:30:21;94499.09;;;10.31;100.00
9721;BME280;4899;42.644;23.366;2023-04-09T06:32:47;94500.03;;;10.35;100.00
9721;BME280;4899;42.644;23.366;2023-04-09T06:35:14;94499.25;;;10.34;100.00
9721;BME280;4899;42.644;23.366;2023-04-09T06:37:39;94499.00;;;10.44;100.00
9721;BME280;4899;42.644;23.366;2023-04-09T06:40:06;94494.47;;;10.41;100.00
9721;BME280;4899;42.644;23.366;2023-04-09T06:42:32;94503.56;;;10.47;100.00
9721;BME280;4899;42.644;23.366;2023-04-09T06:44:57;94509.31;;;10.53;100.00
9721;BME280;4899;42.644;23.366;2023-04-09T06:47:23;94519.28;;;10.55;100.00
9721;BME280;4899;42.644;23.366;2023-04-09T06:49:48;94512.03;;;10.57;100.00
9721;BME280;4899;42.644;23.366;2023-04-09T06:52:14;94512.53;;;10.67;100.00
9721;BME280;4899;42.644;23.366;2023-04-09T06:54:39;94515.72;;;10.73;100.00
9721;BME280;4899;42.644;23.366;2023-04-09T06:57:05;94507.84;;;10.69;100.00
9721;BME280;4899;42.644;23.366;2023-04-09T06:59:31;94513.47;;;10.80;100.00
9721;BME280;4899;42.644;23.366;2023-04-09T07:01:58;94516.34;;;10.87;100.00
9721;BME280;4899;42.644;23.366;2023-04-09T07:04:24;94513.50;;;10.97;100.00
9721;BME280;4899;42.644;23.366;2023-04-09T07:06:49;94518.03;;;11.09;100.00
9721;BME280;4899;42.644;23.366;2023-04-09T07:09:16;94511.53;;;11.12;100.00
9721;BME280;4899;42.644;23.366;2023-04-09T07:11:42;94521.38;;;11.18;100.00
9721;BME280;4899;42.644;23.366;2023-04-09T07:14:08;94523.34;;;11.21;100.00
9721;BME280;4899;42.644;23.366;2023-04-09T07:16:33;94520.16;;;11.33;100.00
9721;BME280;4899;42.644;23.366;2023-04-09T07:18:59;94516.22;;;11.35;100.00
9721;BME280;4899;42.644;23.366;2023-04-09T07:21:24;94508.03;;;11.33;100.00
9721;BME280;4899;42.644;23.366;2023-04-09T07:23:52;94521.22;;;11.49;100.00
9721;BME280;4899;42.644;23.366;2023-04-09T07:26:18;94525.75;;;11.61;100.00
9721;BME280;4899;42.644;23.366;2023-04-09T07:28:43;94527.59;;;11.69;100.00
9721;BME280;4899;42.644;23.366;2023-04-09T07:31:09;94525.91;;;11.82;100.00
9721;BME280;4899;42.644;23.366;2023-04-09T07:33:36;94528.47;;;11.99;100.00
9721;BME280;4899;42.644;23.366;2023-04-09T07:36:01;94534.50;;;12.03;100.00
9721;BME280;4899;42.644;23.366;2023-04-09T07:38:30;94532.81;;;12.16;100.00
9721;BME280;4899;42.644;23.366;2023-04-09T07:40:55;94496.41;;;12.17;100.00
9721;BME280;4899;42.644;23.366;2023-04-09T07:43:21;94525.06;;;12.54;100.00
9721;BME280;4899;42.644;23.366;2023-04-09T07:45:49;94528.97;;;12.69;100.00
9721;BME280;4899;42.644;23.366;2023-04-09T07:48:16;94532.50;;;12.85;100.00
9721;BME280;4899;42.644;23.366;2023-04-09T07:50:42;94541.31;;;12.84;100.00
9721;BME280;4899;42.644;23.366;2023-04-09T07:53:09;94536.72;;;12.69;100.00
9721;BME280;4899;42.644;23.366;2023-04-09T07:55:36;94537.78;;;12.59;100.00
9721;BME280;4899;42.644;23.366;2023-04-09T07:58:01;94532.59;;;12.29;100.00
9721;BME280;4899;42.644;23.366;2023-04-09T08:00:28;94549.94;;;12.20;100.00
9721;BME280;4899;42.644;23.366;2023-04-09T08:02:54;94543.59;;;12.09;100.00
9721;BME280;4899;42.644;23.366;2023-04-09T08:05:19;94536.63;;;12.01;100.00
9721;BME280;4899;42.644;23.366;2023-04-09T08:07:45;94541.03;;;12.00;100.00
9721;BME280;4899;42.644;23.366;2023-04-09T08:10:11;94553.47;;;11.98;100.00
9721;BME280;4899;42.644;23.366;2023-04-09T08:12:39;94553.94;;;12.00;100.00
9721;BME280;4899;42.644;23.366;2023-04-09T08:15:05;94563.16;;;12.19;100.00
9721;BME280;4899;42.644;23.366;2023-04-09T08:17:31;94529.84;;;11.96;100.00
9721;BME280;4899;42.644;23.366;2023-04-09T08:19:56;94557.41;;;12.05;100.00
9721;BME280;4899;42.644;23.366;2023-04-09T08:22:22;94527.25;;;11.88;100.00
9721;BME280;4899;42.644;23.366;2023-04-09T08:24:51;94568.31;;;12.19;100.00
9721;BME280;4899;42.644;23.366;2023-04-09T08:27:17;94569.06;;;12.19;100.00
9721;BME280;4899;42.644;23.366;2023-04-09T08:29:43;94558.59;;;12.16;100.00
9721;BME280;4899;42.644;23.366;2023-04-09T08:32:08;94559.94;;;12.22;100.00
9721;BME280;4899;42.644;23.366;2023-04-09T08:34:34;94562.69;;;12.17;100.00
9721;BME280;4899;42.644;23.366;2023-04-09T08:36:59;94561.91;;;12.25;100.00
9721;BME280;4899;42.644;23.366;2023-04-09T08:39:24;94567.34;;;12.41;100.00
9721;BME280;4899;42.644;23.366;2023-04-09T08:41:51;94553.91;;;12.56;100.00
9721;BME280;4899;42.644;23.366;2023-04-09T08:44:17;94557.59;;;12.46;100.00
9721;BME280;4899;42.644;23.366;2023-04-09T08:46:42;94562.13;;;12.49;100.00
9721;BME280;4899;42.644;23.366;2023-04-09T08:49:09;94568.44;;;12.60;100.00
9721;BME280;4899;42.644;23.366;2023-04-09T08:51:37;94553.13;;;12.64;100.00
9721;BME280;4899;42.644;23.366;2023-04-09T08:54:03;94555.03;;;12.76;100.00
9721;BME280;4899;42.644;23.366;2023-04-09T08:56:29;94559.38;;;12.84;99.54
9721;BME280;4899;42.644;23.366;2023-04-09T08:58:55;94560.19;;;13.05;99.99
9721;BME280;4899;42.644;23.366;2023-04-09T09:01:21;94550.59;;;13.06;96.85
9721;BME280;4899;42.644;23.366;2023-04-09T09:03:58;94552.00;;;13.03;91.69
9721;BME280;4899;42.644;23.366;2023-04-09T09:06:25;94549.34;;;13.12;97.66
9721;BME280;4899;42.644;23.366;2023-04-09T09:11:29;94545.41;;;13.14;94.22
9721;BME280;4899;42.644;23.366;2023-04-09T09:16:33;94532.03;;;13.12;92.79
9721;BME280;4899;42.644;23.366;2023-04-09T09:19:02;94536.09;;;13.22;92.24
9721;BME280;4899;42.644;23.366;2023-04-09T09:21:28;94541.19;;;13.31;91.40
9721;BME280;4899;42.644;23.366;2023-04-09T09:23:54;94527.59;;;13.21;89.56
9721;BME280;4899;42.644;23.366;2023-04-09T09:26:22;94532.94;;;13.37;90.49
9721;BME280;4899;42.644;23.366;2023-04-09T09:28:50;94516.19;;;13.43;88.98
9721;BME280;4899;42.644;23.366;2023-04-09T09:31:20;94523.84;;;13.52;86.62
9721;BME280;4899;42.644;23.366;2023-04-09T09:33:46;94515.59;;;13.59;85.55
9721;BME280;4899;42.644;23.366;2023-04-09T09:36:14;94518.13;;;13.67;83.31
9721;BME280;4899;42.644;23.366;2023-04-09T09:38:54;94519.81;;;13.63;79.05
9721;BME280;4899;42.644;23.366;2023-04-09T09:41:20;94518.91;;;13.80;82.11
9721;BME280;4899;42.644;23.366;2023-04-09T09:43:46;94509.91;;;13.98;81.19
9721;BME280;4899;42.644;23.366;2023-04-09T09:46:12;94506.81;;;14.17;79.79
9721;BME280;4899;42.644;23.366;2023-04-09T09:48:38;94516.28;;;14.25;77.60
9721;BME280;4899;42.644;23.366;2023-04-09T09:51:11;94506.25;;;14.11;71.12
9721;BME280;4899;42.644;23.366;2023-04-09T09:53:38;94507.88;;;14.28;74.52
9721;BME280;4899;42.644;23.366;2023-04-09T09:56:04;94509.19;;;14.22;72.19
9721;BME280;4899;42.644;23.366;2023-04-09T09:58:35;94504.22;;;14.29;72.00
9721;BME280;4899;42.644;23.366;2023-04-09T10:01:01;94503.06;;;14.39;71.25
9721;BME280;4899;42.644;23.366;2023-04-09T10:03:33;94495.31;;;14.51;63.88
9721;BME280;4899;42.644;23.366;2023-04-09T10:06:02;94494.34;;;14.68;66.48
9721;BME280;4899;42.644;23.366;2023-04-09T10:08:29;94490.00;;;14.84;63.41
9721;BME280;4899;42.644;23.366;2023-04-09T10:10:57;94479.44;;;14.89;65.65
9721;BME280;4899;42.644;23.366;2023-04-09T10:13:25;94498.97;;;15.27;65.85
9721;BME280;4899;42.644;23.366;2023-04-09T10:15:55;94481.00;;;15.34;64.71
9721;BME280;4899;42.644;23.366;2023-04-09T10:18:21;94493.59;;;15.48;62.99
9721;BME280;4899;42.644;23.366;2023-04-09T10:23:49;94493.53;;;15.72;60.35
9721;BME280;4899;42.644;23.366;2023-04-09T10:26:17;94481.00;;;15.90;60.97
9721;BME280;4899;42.644;23.366;2023-04-09T10:28:43;94490.38;;;15.94;59.92
9721;BME280;4899;42.644;23.366;2023-04-09T10:31:09;94484.13;;;15.95;59.27
9721;BME280;4899;42.644;23.366;2023-04-09T10:33:38;94481.44;;;16.08;57.91
9721;BME280;4899;42.644;23.366;2023-04-09T10:36:06;94480.16;;;16.33;58.36
9721;BME280;4899;42.644;23.366;2023-04-09T10:41:14;94482.94;;;16.24;53.67
9721;BME280;4899;42.644;23.366;2023-04-09T10:43:41;94481.59;;;16.30;57.17
9721;BME280;4899;42.644;23.366;2023-04-09T10:46:44;94474.31;;;16.20;52.99
9721;BME280;4899;42.644;23.366;2023-04-09T10:51:39;94456.31;;;16.27;55.39
9721;BME280;4899;42.644;23.366;2023-04-09T10:59:32;94453.97;;;16.38;55.83
9721;BME280;4899;42.644;23.366;2023-04-09T11:01:57;94454.06;;;16.26;55.97
9721;BME280;4899;42.644;23.366;2023-04-09T11:05:15;94445.28;;;16.15;54.83
9721;BME280;4899;42.644;23.366;2023-04-09T11:07:14;94448.78;;;16.07;56.02
9721;BME280;4899;42.644;23.366;2023-04-09T11:09:41;94439.44;;;15.86;56.15
9721;BME280;4899;42.644;23.366;2023-04-09T11:12:09;94447.75;;;15.80;56.36
9721;BME280;4899;42.644;23.366;2023-04-09T11:14:35;94444.19;;;15.56;56.39
9721;BME280;4899;42.644;23.366;2023-04-09T11:17:02;94445.16;;;15.36;56.47
9721;BME280;4899;42.644;23.366;2023-04-09T11:19:27;94441.94;;;15.27;56.70
9721;BME280;4899;42.644;23.366;2023-04-09T11:21:53;94438.06;;;14.93;58.48
9721;BME280;4899;42.644;23.366;2023-04-09T11:24:18;94426.94;;;14.64;62.41
9721;BME280;4899;42.644;23.366;2023-04-09T11:26:44;94430.69;;;14.42;62.41
9721;BME280;4899;42.644;23.366;2023-04-09T11:29:10;94416.25;;;14.29;64.14
9721;BME280;4899;42.644;23.366;2023-04-09T11:31:35;94435.63;;;14.35;69.48
9721;BME280;4899;42.644;23.366;2023-04-09T11:34:01;94421.09;;;14.19;72.79
9721;BME280;4899;42.644;23.366;2023-04-09T11:36:27;94416.56;;;14.03;77.37
9721;BME280;4899;42.644;23.366;2023-04-09T11:38:56;94420.63;;;13.80;72.19
9721;BME280;4899;42.644;23.366;2023-04-09T11:41:37;94420.69;;;13.47;73.91
9721;BME280;4899;42.644;23.366;2023-04-09T11:44:06;94422.13;;;13.23;75.22
9721;BME280;4899;42.644;23.366;2023-04-09T11:46:33;94416.53;;;13.21;75.55
9721;BME280;4899;42.644;23.366;2023-04-09T11:48:59;94421.94;;;13.29;75.88
9721;BME280;4899;42.644;23.366;2023-04-09T11:51:26;94418.50;;;13.37;71.66
9721;BME280;4899;42.644;23.366;2023-04-09T11:53:52;94420.47;;;13.52;72.94
9721;BME280;4899;42.644;23.366;2023-04-09T11:56:18;94413.41;;;13.73;73.82
9721;BME280;4899;42.644;23.366;2023-04-09T11:58:45;94411.72;;;13.90;70.49
9721;BME280;4899;42.644;23.366;2023-04-09T12:01:14;94413.75;;;14.08;68.08
9721;BME280;4899;42.644;23.366;2023-04-09T12:03:40;94407.53;;;14.22;65.50
9721;BME280;4899;42.644;23.366;2023-04-09T12:06:07;94412.91;;;14.29;63.11
9721;BME280;4899;42.644;23.366;2023-04-09T12:08:33;94411.41;;;14.28;61.63
9721;BME280;4899;42.644;23.366;2023-04-09T12:11:10;94416.81;;;14.47;59.35
9721;BME280;4899;42.644;23.366;2023-04-09T12:13:36;94395.88;;;14.52;57.48
9721;BME280;4899;42.644;23.366;2023-04-09T12:16:01;94404.81;;;14.67;56.64
9721;BME280;4899;42.644;23.366;2023-04-09T12:18:29;94398.47;;;14.92;56.16
9721;BME280;4899;42.644;23.366;2023-04-09T12:20:55;94398.81;;;15.19;55.28
9721;BME280;4899;42.644;23.366;2023-04-09T12:23:20;94404.88;;;15.54;55.08
9721;BME280;4899;42.644;23.366;2023-04-09T12:25:46;94403.94;;;15.90;53.53
9721;BME280;4899;42.644;23.366;2023-04-09T12:28:14;94409.28;;;16.13;51.95
9721;BME280;4899;42.644;23.366;2023-04-09T12:30:42;94399.59;;;16.80;51.58
9721;BME280;4899;42.644;23.366;2023-04-09T12:33:08;94414.97;;;17.89;49.84
9721;BME280;4899;42.644;23.366;2023-04-09T12:35:33;94415.22;;;19.90;48.40
9721;BME280;4899;42.644;23.366;2023-04-09T12:37:59;94411.59;;;21.33;47.61
9721;BME280;4899;42.644;23.366;2023-04-09T12:40:25;94426.56;;;21.40;46.69
9721;BME280;4899;42.644;23.366;2023-04-09T12:42:51;94415.28;;;21.29;45.16
9721;BME280;4899;42.644;23.366;2023-04-09T12:45:17;94383.09;;;21.10;43.04
9721;BME280;4899;42.644;23.366;2023-04-09T12:47:43;94397.25;;;21.02;43.74
9721;BME280;4899;42.644;23.366;2023-04-09T12:50:10;94397.50;;;20.76;44.07
9721;BME280;4899;42.644;23.366;2023-04-09T12:52:36;94415.81;;;20.76;43.63
9721;BME280;4899;42.644;23.366;2023-04-09T12:55:02;94409.22;;;20.34;43.74
9721;BME280;4899;42.644;23.366;2023-04-09T12:57:29;94408.09;;;20.35;43.19
9721;BME280;4899;42.644;23.366;2023-04-09T12:59:55;94410.16;;;20.08;43.13
9721;BME280;4899;42.644;23.366;2023-04-09T13:02:22;94408.69;;;20.11;43.53
9721;BME280;4899;42.644;23.366;2023-04-09T13:04:48;94392.34;;;20.28;42.83
9721;BME280;4899;42.644;23.366;2023-04-09T13:07:14;94403.22;;;21.06;42.48
9721;BME280;4899;42.644;23.366;2023-04-09T13:09:40;94392.94;;;21.77;41.79
9721;BME280;4899;42.644;23.366;2023-04-09T13:12:06;94378.00;;;22.35;40.80
9721;BME280;4899;42.644;23.366;2023-04-09T13:14:32;94356.28;;;21.45;41.23
9721;BME280;4899;42.644;23.366;2023-04-09T13:16:57;94385.44;;;21.47;41.01
9721;BME280;4899;42.644;23.366;2023-04-09T13:19:22;94373.50;;;21.78;41.06
9721;BME280;4899;42.644;23.366;2023-04-09T13:21:48;94369.75;;;21.65;40.82
9721;BME280;4899;42.644;23.366;2023-04-09T13:24:13;94387.53;;;21.06;41.41
9721;BME280;4899;42.644;23.366;2023-04-09T13:26:39;94378.53;;;20.27;41.14
9721;BME280;4899;42.644;23.366;2023-04-09T13:29:06;94385.06;;;19.56;41.79
9721;BME280;4899;42.644;23.366;2023-04-09T13:31:34;94399.25;;;18.88;42.44
9721;BME280;4899;42.644;23.366;2023-04-09T13:34:00;94397.88;;;18.41;43.04
9721;BME280;4899;42.644;23.366;2023-04-09T13:36:27;94398.34;;;17.97;43.11
9721;BME280;4899;42.644;23.366;2023-04-09T13:38:54;94395.00;;;17.74;43.49